Time;durP1;ratioP1;P1;durP2;ratioP2;P2;SDS_P1;SDS_P2;PMS_P1;PMS_P2;Temp;Humidity;BMP_temperature;BMP_pressure;BME280_temperature;BME280_humidity;BME280_pressure;Samples;Min_cycle;Max_cycle;Signal;HPM_P1;HPM_P2
2022/12/21 00:00:17;;;;;;;;;;;6.30;99.90;;;;;;5045988;28;20270;-54
2022/12/21 00:02:43;;;;;;;;;;;6.30;99.90;;;;;;5050678;28;20111;-54
2022/12/21 00:05:09;;;;;;;;;;;6.30;99.90;;;;;;5034069;28;20023;-53
2022/12/21 00:07:34;;;;;;;;;;;6.30;99.90;;;;;;5038834;28;19920;-57
2022/12/21 00:10:00;;;;;;;;;;;6.20;99.90;;;;;;5037785;28;20487;-55
2022/12/21 00:12:25;;;;;;;;;;;6.10;99.90;;;;;;5044109;28;19920;-55
2022/12/21 00:14:51;;;;;;;;;;;6.20;99.90;;;;;;5035539;28;19923;-54
2022/12/21 00:17:16;;;;;;;;;;;6.20;99.90;;;;;;5043639;28;20297;-57
2022/12/21 00:19:42;;;;;;;;;;;6.20;99.90;;;;;;5042180;28;19913;-57
2022/12/21 00:22:08;;;;;;;;;;;6.30;99.90;;;;;;5039784;28;19921;-57
2022/12/21 00:24:33;;;;;;;;;;;6.30;99.90;;;;;;5040077;28;19913;-56
2022/12/21 00:26:59;;;;;;;;;;;6.20;99.90;;;;;;5046065;28;19913;-54
2022/12/21 00:29:24;;;;;;;;;;;6.10;99.90;;;;;;5032993;28;19916;-57
2022/12/21 00:31:50;;;;;;;;;;;6.00;99.90;;;;;;5033822;28;19913;-55
2022/12/21 00:34:19;;;;;;;;;;;6.10;99.90;;;;;;5036611;28;19921;-55
2022/12/21 00:36:45;;;;;;;;;;;;;;;;;;5045735;28;20386;-53
2022/12/21 00:39:10;;;;;;;;;;;;;;;;;;5033373;28;19913;-57
2022/12/21 00:41:36;;;;;;;;;;;;;;;;;;5049442;28;20328;-57
2022/12/21 00:44:02;;;;;;;;;;;6.10;99.90;;;;;;5032236;28;19929;-58
2022/12/21 00:46:30;;;;;;;;;;;6.20;99.90;;;;;;5034711;28;19917;-55
2022/12/21 00:48:56;;;;;;;;;;;6.20;99.90;;;;;;5039720;28;20000;-58
2022/12/21 00:51:23;;;;;;;;;;;6.30;99.90;;;;;;5049247;28;19912;-57
2022/12/21 00:53:49;;;;;;;;;;;6.30;99.90;;;;;;5035184;28;19924;-57
2022/12/21 00:56:15;;;;;;;;;;;6.40;99.90;;;;;;5044777;28;20401;-57
2022/12/21 00:58:41;;;;;;;;;;;6.30;99.90;;;;;;5038959;28;20365;-57
2022/12/21 01:01:08;;;;;;;;;;;6.40;99.90;;;;;;5046155;28;19970;-59
2022/12/21 01:03:34;;;;;;;;;;;6.30;99.90;;;;;;5045061;28;19960;-56
2022/12/21 01:05:59;;;;;;;;;;;6.30;99.90;;;;;;5045818;28;19982;-58
2022/12/21 01:08:25;;;;;;;;;;;6.30;99.90;;;;;;5038007;28;20008;-57
2022/12/21 01:10:58;;;;;;;;;;;6.30;99.90;;;;;;5048173;28;19936;-58
2022/12/21 01:13:24;;;;;;;;;;;6.20;99.90;;;;;;5032049;28;19935;-57
2022/12/21 01:15:50;;;;;;;;;;;6.20;99.90;;;;;;5041461;28;19917;-55
2022/12/21 01:18:16;;;;;;;;;;;;;;;;;;5038439;28;19929;-55
2022/12/21 01:20:41;;;;;;;;;;;;;;;;;;5049667;28;20392;-58
2022/12/21 01:23:07;;;;;;;;;;;;;;;;;;5033707;28;19913;-57
2022/12/21 01:25:33;;;;;;;;;;;;;;;;;;5041297;28;19919;-57
2022/12/21 01:27:59;;;;;;;;;;;;;;;;;;5036062;28;19913;-57
2022/12/21 01:30:25;;;;;;;;;;;;;;;;;;5048204;28;19913;-57
2022/12/21 01:32:51;;;;;;;;;;;;;;;;;;5046960;28;20444;-55
2022/12/21 01:35:17;;;;;;;;;;;6.20;99.90;;;;;;5050493;28;20012;-56
2022/12/21 01:37:42;;;;;;;;;;;6.20;99.90;;;;;;5038989;28;20016;-55
2022/12/21 01:40:08;;;;;;;;;;;6.20;99.90;;;;;;5043190;28;19920;-57
2022/12/21 01:42:34;;;;;;;;;;;6.20;99.90;;;;;;5039863;28;20285;-59
2022/12/21 01:45:02;;;;;;;;;;;6.20;99.90;;;;;;5036588;28;19909;-57
2022/12/21 01:47:36;;;;;;;;;;;6.30;99.90;;;;;;5055451;28;19915;-54
2022/12/21 01:50:22;;;;;;;;;;;6.30;99.90;;;;;;5055278;28;19943;-56
2022/12/21 01:52:48;;;;;;;;;;;6.30;99.90;;;;;;5055362;28;19909;-55
2022/12/21 01:55:13;;;;;;;;;;;6.30;99.90;;;;;;5055254;28;19916;-56
2022/12/21 01:57:39;;;;;;;;;;;;;;;;;;5050323;28;19955;-58
2022/12/21 02:00:05;;;;;;;;;;;6.30;99.90;;;;;;5035200;28;20003;-56
2022/12/21 02:02:35;;;;;;;;;;;6.40;99.90;;;;;;5035148;28;19971;-54
2022/12/21 02:05:11;;;;;;;;;;;6.40;99.90;;;;;;5035280;28;19991;-56
2022/12/21 02:07:37;;;;;;;;;;;6.40;99.90;;;;;;5035235;28;20409;-56
2022/12/21 02:10:03;;;;;;;;;;;6.40;99.90;;;;;;5036485;28;19966;-58
2022/12/21 02:12:30;;;;;;;;;;;6.40;99.90;;;;;;5036226;28;19917;-58
2022/12/21 02:14:55;;;;;;;;;;;6.40;99.90;;;;;;5037467;28;20378;-57
2022/12/21 02:17:46;;;;;;;;;;;6.40;99.90;;;;;;5036048;28;19948;-55
2022/12/21 02:20:30;;;;;;;;;;;6.40;99.90;;;;;;5043578;28;19913;-55
2022/12/21 02:23:02;;;;;;;;;;;6.30;99.90;;;;;;5052464;28;19913;-58
2022/12/21 02:25:28;;;;;;;;;;;;;;;;;;5035871;28;19924;-54
2022/12/21 02:27:54;;;;;;;;;;;;;;;;;;5043448;28;19912;-55
2022/12/21 02:30:20;;;;;;;;;;;;;;;;;;5047825;28;20026;-55
2022/12/21 02:32:54;;;;;;;;;;;6.30;99.90;;;;;;5053055;28;20301;-55
2022/12/21 02:35:20;;;;;;;;;;;;;;;;;;5042916;28;19913;-58
2022/12/21 02:37:46;;;;;;;;;;;;;;;;;;5054564;28;19943;-56
2022/12/21 02:40:12;;;;;;;;;;;;;;;;;;5043977;28;19917;-53
2022/12/21 02:45:23;;;;;;;;;;;;;;;;;;5034146;28;19916;-56
2022/12/21 02:47:49;;;;;;;;;;;;;;;;;;5042490;28;19913;-57
2022/12/21 02:50:15;;;;;;;;;;;;;;;;;;5054690;28;19909;-57
2022/12/21 02:52:41;;;;;;;;;;;;;;;;;;5053071;28;20292;-58
2022/12/21 02:55:07;;;;;;;;;;;;;;;;;;5054439;28;19913;-55
2022/12/21 02:57:33;;;;;;;;;;;;;;;;;;5054125;28;19943;-57
2022/12/21 02:59:59;;;;;;;;;;;;;;;;;;5046276;28;20021;-57
2022/12/21 03:02:25;;;;;;;;;;;;;;;;;;5034178;28;19913;-54
2022/12/21 03:05:03;;;;;;;;;;;6.30;99.90;;;;;;5034093;28;19916;-55
2022/12/21 03:07:40;;;;;;;;;;;6.40;99.90;;;;;;5034141;28;19913;-60
2022/12/21 03:10:06;;;;;;;;;;;;;;;;;;5034072;28;19909;-58
2022/12/21 03:12:41;;;;;;;;;;;6.40;99.90;;;;;;5034128;28;19913;-58
2022/12/21 03:15:18;;;;;;;;;;;6.30;99.90;;;;;;5039663;28;20400;-59
2022/12/21 03:17:46;;;;;;;;;;;6.20;99.90;;;;;;5033943;28;20429;-58
2022/12/21 03:20:12;;;;;;;;;;;;;;;;;;5039463;28;19920;-56
2022/12/21 03:22:38;;;;;;;;;;;;;;;;;;5051954;28;19917;-56
2022/12/21 03:25:04;;;;;;;;;;;;;;;;;;5039706;28;20279;-57
2022/12/21 03:27:30;;;;;;;;;;;;;;;;;;5049875;28;19927;-58
2022/12/21 03:29:56;;;;;;;;;;;;;;;;;;5038609;28;20389;-57
2022/12/21 03:32:22;;;;;;;;;;;;;;;;;;5034686;28;19913;-58
2022/12/21 03:34:48;;;;;;;;;;;;;;;;;;5039228;28;19913;-59
2022/12/21 03:37:14;;;;;;;;;;;;;;;;;;5034547;28;19921;-57
2022/12/21 03:39:40;;;;;;;;;;;;;;;;;;5036965;28;19920;-58
2022/12/21 03:42:06;;;;;;;;;;;;;;;;;;5036871;28;19917;-57
2022/12/21 03:44:31;;;;;;;;;;;;;;;;;;5033785;28;20007;-53
2022/12/21 03:46:57;;;;;;;;;;;;;;;;;;5045891;28;19913;-58
2022/12/21 03:49:23;;;;;;;;;;;;;;;;;;5052402;28;19909;-56
2022/12/21 03:51:49;;;;;;;;;;;;;;;;;;5050143;28;19912;-55
2022/12/21 03:54:15;;;;;;;;;;;;;;;;;;5047794;28;19912;-59
2022/12/21 03:56:41;;;;;;;;;;;;;;;;;;5037952;28;19917;-57
2022/12/21 03:59:07;;;;;;;;;;;;;;;;;;5032974;28;19909;-58
2022/12/21 04:01:33;;;;;;;;;;;;;;;;;;5043791;28;19922;-58
2022/12/21 04:03:59;;;;;;;;;;;;;;;;;;5047370;28;20024;-59
2022/12/21 04:06:25;;;;;;;;;;;;;;;;;;5047362;28;19960;-57
2022/12/21 04:08:50;;;;;;;;;;;;;;;;;;5035527;28;19917;-57
2022/12/21 04:14:01;;;;;;;;;;;6.20;99.90;;;;;;5035379;28;21526;-58
2022/12/21 04:16:26;;;;;;;;;;;6.40;99.90;;;;;;5049700;28;19952;-54
2022/12/21 04:21:36;;;;;;;;;;;;;;;;;;5035700;28;19924;-58
2022/12/21 04:29:31;;;;;;;;;;;;;;;;;;5031675;28;19916;-58
2022/12/21 04:31:57;;;;;;;;;;;;;;;;;;5045524;28;19913;-57
2022/12/21 04:34:23;;;;;;;;;;;6.50;99.90;;;;;;5040815;28;19920;-55
2022/12/21 04:39:33;;;;;;;;;;;6.40;99.90;;;;;;5040783;28;20368;-57
2022/12/21 04:41:58;;;;;;;;;;;6.40;99.90;;;;;;5045180;28;20011;-58
2022/12/21 04:44:24;;;;;;;;;;;6.40;99.90;;;;;;5051920;28;19913;-55
2022/12/21 04:46:49;;;;;;;;;;;6.30;99.90;;;;;;5047641;28;20373;-56
2022/12/21 04:49:15;;;;;;;;;;;6.40;99.90;;;;;;5032330;28;20258;-58
2022/12/21 04:51:40;;;;;;;;;;;6.40;99.90;;;;;;5037020;28;20313;-58
2022/12/21 04:54:06;;;;;;;;;;;;;;;;;;5033489;28;20358;-57
2022/12/21 04:56:32;;;;;;;;;;;6.30;99.90;;;;;;5031936;28;19913;-57
2022/12/21 04:58:58;;;;;;;;;;;6.30;99.90;;;;;;5031498;28;19909;-57
2022/12/21 05:01:23;;;;;;;;;;;6.40;99.90;;;;;;5031298;28;20015;-58
2022/12/21 05:03:49;;;;;;;;;;;6.40;99.90;;;;;;5031155;28;19916;-57
2022/12/21 05:06:15;;;;;;;;;;;6.40;99.90;;;;;;5030693;28;19917;-57
2022/12/21 05:08:41;;;;;;;;;;;6.50;99.90;;;;;;5031637;28;19913;-59
2022/12/21 05:11:11;;;;;;;;;;;6.50;99.90;;;;;;5031674;28;19965;-55
2022/12/21 05:13:37;;;;;;;;;;;6.50;99.90;;;;;;5032159;28;19909;-57
2022/12/21 05:16:03;;;;;;;;;;;6.50;99.90;;;;;;5031999;28;19924;-58
2022/12/21 05:18:29;;;;;;;;;;;6.50;99.90;;;;;;5047195;28;19920;-55
2022/12/21 05:20:54;;;;;;;;;;;6.60;99.90;;;;;;5051962;28;19909;-57
2022/12/21 05:23:20;;;;;;;;;;;6.50;99.90;;;;;;5051907;28;20272;-58
2022/12/21 05:25:45;;;;;;;;;;;6.60;99.90;;;;;;5051967;28;19932;-59
2022/12/21 05:28:11;;;;;;;;;;;6.60;99.90;;;;;;5051610;28;20007;-58
2022/12/21 05:30:36;;;;;;;;;;;6.50;99.90;;;;;;5048657;28;19958;-58
2022/12/21 05:33:02;;;;;;;;;;;6.50;99.90;;;;;;5049203;28;20385;-58
2022/12/21 05:35:28;;;;;;;;;;;6.50;99.90;;;;;;5051830;28;20293;-57
2022/12/21 05:37:53;;;;;;;;;;;6.40;99.90;;;;;;5051907;28;20262;-55
2022/12/21 05:40:19;;;;;;;;;;;6.40;99.90;;;;;;5051748;28;20044;-50
2022/12/21 05:42:44;;;;;;;;;;;6.40;99.90;;;;;;5051666;28;19913;-50
2022/12/21 05:45:10;;;;;;;;;;;6.40;99.90;;;;;;5051654;28;19916;-54
2022/12/21 05:47:36;;;;;;;;;;;6.40;99.90;;;;;;5051746;28;19908;-54
2022/12/21 05:50:01;;;;;;;;;;;6.40;99.90;;;;;;5050367;28;19908;-56
2022/12/21 05:52:27;;;;;;;;;;;6.50;99.90;;;;;;5051665;28;20003;-52
2022/12/21 05:54:53;;;;;;;;;;;6.50;99.90;;;;;;5051482;28;19909;-53
2022/12/21 05:57:18;;;;;;;;;;;6.60;99.90;;;;;;5051544;28;19913;-55
2022/12/21 05:59:44;;;;;;;;;;;6.60;99.90;;;;;;5049906;28;19955;-58
2022/12/21 06:02:09;;;;;;;;;;;6.50;99.90;;;;;;5035603;28;19952;-54
2022/12/21 06:04:35;;;;;;;;;;;6.60;99.90;;;;;;5031640;28;19909;-55
2022/12/21 06:07:00;;;;;;;;;;;6.60;99.90;;;;;;5031525;28;19913;-56
2022/12/21 06:09:26;;;;;;;;;;;6.60;99.90;;;;;;5031527;28;19915;-56
2022/12/21 06:11:52;;;;;;;;;;;6.50;99.90;;;;;;5031679;28;19953;-57
2022/12/21 06:14:17;;;;;;;;;;;6.50;99.90;;;;;;5031384;28;19921;-57
2022/12/21 06:16:43;;;;;;;;;;;6.50;99.90;;;;;;5031627;28;19917;-53
2022/12/21 06:19:08;;;;;;;;;;;6.50;99.90;;;;;;5034192;28;19913;-58
2022/12/21 06:21:34;;;;;;;;;;;6.50;99.90;;;;;;5035009;28;19920;-58
2022/12/21 06:23:59;;;;;;;;;;;6.50;99.90;;;;;;5035142;28;19916;-56
2022/12/21 06:26:25;;;;;;;;;;;6.50;99.90;;;;;;5034808;28;19932;-56
2022/12/21 06:28:51;;;;;;;;;;;6.60;99.90;;;;;;5034700;28;19909;-55
2022/12/21 06:31:18;;;;;;;;;;;6.60;99.90;;;;;;5035264;28;20282;-53
2022/12/21 06:33:43;;;;;;;;;;;6.60;99.90;;;;;;5034996;28;19909;-57
2022/12/21 06:36:09;;;;;;;;;;;6.60;99.90;;;;;;5034766;28;20274;-58
2022/12/21 06:38:35;;;;;;;;;;;;;;;;;;5038451;28;20563;-60
2022/12/21 06:41:01;;;;;;;;;;;;;;;;;;5034607;28;19913;-61
2022/12/21 06:43:27;;;;;;;;;;;;;;;;;;5034630;28;19913;-60
2022/12/21 06:45:53;;;;;;;;;;;;;;;;;;5034595;28;20275;-59
2022/12/21 06:48:19;;;;;;;;;;;;;;;;;;5034387;28;19920;-57
2022/12/21 06:50:45;;;;;;;;;;;;;;;;;;5034484;28;19908;-58
2022/12/21 06:53:11;;;;;;;;;;;;;;;;;;5034466;28;20008;-52
2022/12/21 06:55:37;;;;;;;;;;;;;;;;;;5034376;28;20012;-54
2022/12/21 06:58:03;;;;;;;;;;;;;;;;;;5034321;28;20000;-57
2022/12/21 07:00:28;;;;;;;;;;;;;;;;;;5034221;28;20000;-55
2022/12/21 07:02:55;;;;;;;;;;;;;;;;;;5036905;28;20434;-54
2022/12/21 07:05:21;;;;;;;;;;;;;;;;;;5034182;28;19909;-55
2022/12/21 07:07:47;;;;;;;;;;;;;;;;;;5034169;28;19909;-57
2022/12/21 07:10:13;;;;;;;;;;;;;;;;;;5034118;28;19917;-57
2022/12/21 07:12:39;;;;;;;;;;;;;;;;;;5032770;28;19944;-56
2022/12/21 07:15:05;;;;;;;;;;;;;;;;;;5049940;28;20362;-57
2022/12/21 07:17:31;;;;;;;;;;;;;;;;;;5053978;28;20384;-57
2022/12/21 07:19:57;;;;;;;;;;;;;;;;;;5053136;28;19908;-57
2022/12/21 07:22:23;;;;;;;;;;;;;;;;;;5052233;28;19913;-57
2022/12/21 07:24:49;;;;;;;;;;;;;;;;;;5053457;28;19912;-53
2022/12/21 07:27:15;;;;;;;;;;;6.50;99.90;;;;;;5053517;28;20346;-53
2022/12/21 07:29:40;;;;;;;;;;;6.70;99.90;;;;;;5052955;28;19995;-55
2022/12/21 07:32:06;;;;;;;;;;;6.70;99.90;;;;;;5052377;28;19974;-58
2022/12/21 07:34:31;;;;;;;;;;;6.70;99.90;;;;;;5053474;28;19912;-56
2022/12/21 07:36:57;;;;;;;;;;;6.60;99.90;;;;;;5053453;28;19917;-54
2022/12/21 07:39:22;;;;;;;;;;;6.70;99.90;;;;;;5053330;28;19909;-54
2022/12/21 07:41:48;;;;;;;;;;;6.70;99.90;;;;;;5053731;28;19960;-59
2022/12/21 07:44:14;;;;;;;;;;;6.70;99.90;;;;;;5053314;28;19916;-55
2022/12/21 07:46:41;;;;;;;;;;;6.70;99.90;;;;;;5052455;28;20212;-55
2022/12/21 07:49:07;;;;;;;;;;;6.70;99.90;;;;;;5053051;28;19915;-56
2022/12/21 07:51:32;;;;;;;;;;;6.70;99.90;;;;;;5053180;28;19909;-57
2022/12/21 07:53:58;;;;;;;;;;;6.60;99.90;;;;;;5053059;28;20373;-56
2022/12/21 07:56:23;;;;;;;;;;;6.60;99.90;;;;;;5052870;28;20318;-57
2022/12/21 07:58:49;;;;;;;;;;;6.70;99.90;;;;;;5051506;28;19908;-57
2022/12/21 08:01:16;;;;;;;;;;;6.70;99.90;;;;;;5052932;28;19916;-58
2022/12/21 08:03:42;;;;;;;;;;;6.60;99.90;;;;;;5052951;28;20336;-54
2022/12/21 08:06:08;;;;;;;;;;;6.70;99.90;;;;;;5052885;28;19908;-58
2022/12/21 08:08:34;;;;;;;;;;;6.70;99.90;;;;;;5052715;28;19977;-55
2022/12/21 08:11:01;;;;;;;;;;;6.70;99.90;;;;;;5052700;28;19909;-57
2022/12/21 08:13:26;;;;;;;;;;;6.70;99.90;;;;;;5051491;28;19970;-58
2022/12/21 08:15:59;;;;;;;;;;;6.80;99.90;;;;;;5052622;28;20374;-58
2022/12/21 08:18:24;;;;;;;;;;;6.80;99.90;;;;;;5052557;28;19913;-58
2022/12/21 08:20:50;;;;;;;;;;;6.80;99.90;;;;;;5052641;28;20399;-57
2022/12/21 08:23:16;;;;;;;;;;;6.80;99.90;;;;;;5052617;28;20301;-56
2022/12/21 08:25:41;;;;;;;;;;;6.80;99.90;;;;;;5052373;28;19909;-53
2022/12/21 08:28:07;;;;;;;;;;;6.80;99.90;;;;;;5052256;28;19940;-57
2022/12/21 08:30:33;;;;;;;;;;;6.80;99.90;;;;;;5052509;28;20038;-58
2022/12/21 08:32:58;;;;;;;;;;;6.90;99.90;;;;;;5051161;28;19923;-55
2022/12/21 08:35:24;;;;;;;;;;;;;;;;;;5052365;28;20401;-53
2022/12/21 08:37:50;;;;;;;;;;;;;;;;;;5052361;28;19947;-53
2022/12/21 08:40:16;;;;;;;;;;;6.90;99.90;;;;;;5052054;28;19963;-53
2022/12/21 08:42:41;;;;;;;;;;;6.90;99.90;;;;;;5050080;28;19956;-55
2022/12/21 08:45:07;;;;;;;;;;;7.00;99.90;;;;;;5052375;28;20408;-57
2022/12/21 08:47:32;;;;;;;;;;;7.00;99.90;;;;;;5052142;28;20429;-55
2022/12/21 08:49:58;;;;;;;;;;;7.00;99.90;;;;;;5052583;28;19913;-53
2022/12/21 08:52:24;;;;;;;;;;;7.00;99.90;;;;;;5052240;28;19947;-56
2022/12/21 08:54:50;;;;;;;;;;;;;;;;;;5050725;28;19916;-58
2022/12/21 08:57:16;;;;;;;;;;;;;;;;;;5052098;28;19909;-56
2022/12/21 08:59:41;;;;;;;;;;;;;;;;;;5051861;28;19909;-55
2022/12/21 09:02:07;;;;;;;;;;;;;;;;;;5051923;28;19935;-56
2022/12/21 09:04:33;;;;;;;;;;;;;;;;;;5051969;28;20385;-54
2022/12/21 09:06:59;;;;;;;;;;;;;;;;;;5050707;28;19913;-56
2022/12/21 09:09:25;;;;;;;;;;;;;;;;;;5051755;28;19909;-53
2022/12/21 09:11:51;;;;;;;;;;;;;;;;;;5051985;28;19923;-53
2022/12/21 09:14:17;;;;;;;;;;;;;;;;;;5051772;28;19909;-53
2022/12/21 09:16:43;;;;;;;;;;;;;;;;;;5051844;28;19968;-55
2022/12/21 09:19:09;;;;;;;;;;;;;;;;;;5051980;28;20341;-53
2022/12/21 09:21:34;;;;;;;;;;;7.10;99.90;;;;;;5051833;28;19959;-54
2022/12/21 09:24:00;;;;;;;;;;;7.00;99.90;;;;;;5051630;28;20336;-56
2022/12/21 09:26:25;;;;;;;;;;;6.90;99.90;;;;;;5051855;28;20274;-53
2022/12/21 09:28:51;;;;;;;;;;;7.00;99.90;;;;;;5051741;28;20327;-54
2022/12/21 09:31:18;;;;;;;;;;;7.00;99.90;;;;;;5051778;28;19916;-53
2022/12/21 09:33:44;;;;;;;;;;;6.90;99.90;;;;;;5050466;28;19996;-57
2022/12/21 09:36:10;;;;;;;;;;;6.90;99.90;;;;;;5051682;28;19952;-56
2022/12/21 09:38:36;;;;;;;;;;;;;;;;;;5051522;28;19909;-53
2022/12/21 09:41:02;;;;;;;;;;;;;;;;;;5051660;28;19909;-54
2022/12/21 09:43:28;;;;;;;;;;;;;;;;;;5051712;28;19916;-56
2022/12/21 09:45:56;;;;;;;;;;;7.00;99.90;;;;;;5051506;28;19915;-55
2022/12/21 09:48:24;;;;;;;;;;;6.90;99.90;;;;;;5051548;28;20385;-58
2022/12/21 09:51:00;;;;;;;;;;;6.90;99.90;;;;;;5051574;28;19999;-56
2022/12/21 09:53:28;;;;;;;;;;;6.80;99.90;;;;;;5053494;28;19909;-55
2022/12/21 09:55:54;;;;;;;;;;;6.90;99.90;;;;;;5055372;28;19909;-56
2022/12/21 09:58:23;;;;;;;;;;;6.90;99.90;;;;;;5053856;28;19909;-52
2022/12/21 10:00:49;;;;;;;;;;;;;;;;;;5055245;28;19966;-56
2022/12/21 10:03:15;;;;;;;;;;;;;;;;;;5055176;28;19912;-57
2022/12/21 10:05:41;;;;;;;;;;;;;;;;;;5055065;28;19909;-57
2022/12/21 10:08:06;;;;;;;;;;;;;;;;;;5055109;28;20358;-57
2022/12/21 10:10:33;;;;;;;;;;;;;;;;;;5053869;28;19920;-55
2022/12/21 10:12:59;;;;;;;;;;;;;;;;;;5055091;28;19916;-56
2022/12/21 10:15:26;;;;;;;;;;;;;;;;;;5053682;28;20237;-55
2022/12/21 10:17:51;;;;;;;;;;;;;;;;;;5055074;28;19916;-56
2022/12/21 10:20:30;;;;;;;;;;;7.00;99.90;;;;;;5054743;28;19909;-54
2022/12/21 10:22:56;;;;;;;;;;;;;;;;;;5054851;28;20385;-54
2022/12/21 10:25:23;;;;;;;;;;;6.80;99.90;;;;;;5054768;28;19916;-53
2022/12/21 10:27:56;;;;;;;;;;;6.90;99.90;;;;;;5054798;28;19913;-57
2022/12/21 10:30:21;;;;;;;;;;;6.90;99.90;;;;;;5054766;28;20377;-56
2022/12/21 10:32:48;;;;;;;;;;;7.10;99.90;;;;;;5054732;28;19908;-54
2022/12/21 10:35:18;;;;;;;;;;;7.30;99.90;;;;;;5053299;28;19909;-57
2022/12/21 10:37:49;;;;;;;;;;;7.30;99.90;;;;;;5054557;28;19909;-57
2022/12/21 10:40:14;;;;;;;;;;;7.30;99.90;;;;;;5054496;28;19909;-57
2022/12/21 10:42:42;;;;;;;;;;;8.70;99.90;;;;;;5054550;28;19913;-53
2022/12/21 10:45:12;;;;;;;;;;;7.40;99.90;;;;;;5053099;28;19909;-57
2022/12/21 10:47:40;;;;;;;;;;;7.30;99.90;;;;;;5054431;28;20323;-57
2022/12/21 10:50:12;;;;;;;;;;;7.40;99.90;;;;;;5054173;28;19913;-60
2022/12/21 10:52:39;;;;;;;;;;;7.30;99.90;;;;;;5054453;28;19915;-55
2022/12/21 10:55:06;;;;;;;;;;;7.40;99.90;;;;;;5054320;28;19920;-57
2022/12/21 10:57:33;;;;;;;;;;;7.40;99.90;;;;;;5054110;28;19919;-57
2022/12/21 11:00:04;;;;;;;;;;;7.40;99.90;;;;;;5054083;28;19912;-56
2022/12/21 11:02:34;;;;;;;;;;;7.30;99.90;;;;;;5054121;28;20431;-59
2022/12/21 11:04:59;;;;;;;;;;;7.30;99.90;;;;;;5053056;28;19917;-58
2022/12/21 11:07:27;;;;;;;;;;;7.30;99.90;;;;;;5054079;28;20270;-57
2022/12/21 11:09:56;;;;;;;;;;;7.30;99.90;;;;;;5053999;28;19932;-58
2022/12/21 11:12:23;;;;;;;;;;;7.30;99.90;;;;;;5053896;28;19915;-58
2022/12/21 11:14:49;;;;;;;;;;;7.30;99.90;;;;;;5053784;28;19920;-60
2022/12/21 11:17:17;;;;;;;;;;;7.30;99.90;;;;;;5053856;28;19909;-57
2022/12/21 11:19:43;;;;;;;;;;;7.30;99.90;;;;;;5042407;28;19928;-55
2022/12/21 11:22:08;;;;;;;;;;;7.40;99.90;;;;;;5037415;28;19924;-56
2022/12/21 11:24:37;;;;;;;;;;;7.40;99.90;;;;;;5036705;28;19913;-57
2022/12/21 11:27:15;;;;;;;;;;;7.30;99.90;;;;;;5042260;28;20412;-54
2022/12/21 11:29:49;;;;;;;;;;;7.30;99.90;;;;;;5051987;28;20416;-56
2022/12/21 11:32:15;;;;;;;;;;;7.30;99.90;;;;;;5053530;28;19909;-58
2022/12/21 11:34:41;;;;;;;;;;;;;;;;;;5053170;28;19912;-56
2022/12/21 11:37:21;;;;;;;;;;;7.30;99.90;;;;;;5039462;28;19996;-56
2022/12/21 11:39:47;;;;;;;;;;;7.30;99.90;;;;;;5043726;28;20443;-57
2022/12/21 11:42:13;;;;;;;;;;;;;;;;;;5034671;28;19924;-56
2022/12/21 11:44:39;;;;;;;;;;;;;;;;;;5033926;28;19917;-58
2022/12/21 11:47:05;;;;;;;;;;;;;;;;;;5034615;28;20690;-57
2022/12/21 11:49:36;;;;;;;;;;;7.30;99.90;;;;;;5034367;28;20361;-57
2022/12/21 11:52:02;;;;;;;;;;;7.30;99.90;;;;;;5045880;28;20540;-57
2022/12/21 11:54:46;;;;;;;;;;;7.40;99.90;;;;;;5041631;28;19913;-57
2022/12/21 11:57:30;;;;;;;;;;;7.50;99.90;;;;;;5047650;28;19920;-57
2022/12/21 12:00:06;;;;;;;;;;;7.40;99.90;;;;;;5041106;28;20386;-58
2022/12/21 12:02:35;;;;;;;;;;;7.40;99.90;;;;;;5049001;28;20364;-57
2022/12/21 12:05:03;;;;;;;;;;;7.30;99.90;;;;;;5041578;28;19913;-56
2022/12/21 12:07:47;;;;;;;;;;;7.30;99.90;;;;;;5035116;28;19924;-55
2022/12/21 12:10:16;;;;;;;;;;;7.30;99.90;;;;;;5052460;28;20345;-55
2022/12/21 12:12:50;;;;;;;;;;;7.30;99.90;;;;;;5051694;28;20309;-56
2022/12/21 12:15:34;;;;;;;;;;;7.40;99.90;;;;;;5033835;28;20297;-59
2022/12/21 12:18:06;;;;;;;;;;;7.40;99.90;;;;;;5033753;28;20430;-57
2022/12/21 12:20:32;;;;;;;;;;;;;;;;;;5043980;28;19928;-54
2022/12/21 12:23:17;;;;;;;;;;;7.30;99.90;;;;;;5046323;28;19924;-56
2022/12/21 12:25:57;;;;;;;;;;;7.30;99.90;;;;;;5045817;28;19912;-54
2022/12/21 12:28:23;;;;;;;;;;;;;;;;;;5052548;28;20022;-54
2022/12/21 12:31:12;;;;;;;;;;;7.30;99.90;;;;;;5050917;28;19947;-54
2022/12/21 12:33:52;;;;;;;;;;;7.40;99.90;;;;;;5040106;28;19953;-56
2022/12/21 12:36:37;;;;;;;;;;;7.40;99.90;;;;;;5051921;28;19916;-56
2022/12/21 12:39:15;;;;;;;;;;;7.50;99.90;;;;;;5043680;28;19935;-58
2022/12/21 12:42:01;;;;;;;;;;;7.40;99.90;;;;;;5046471;28;20362;-54
2022/12/21 12:44:45;;;;;;;;;;;7.40;99.90;;;;;;5042944;28;19967;-58
2022/12/21 12:47:22;;;;;;;;;;;7.40;99.90;;;;;;5041849;28;19913;-56
2022/12/21 12:50:07;;;;;;;;;;;7.40;99.90;;;;;;5039362;28;19921;-57
2022/12/21 12:52:37;;;;;;;;;;;7.50;99.90;;;;;;5038174;28;19921;-53
2022/12/21 12:55:09;;;;;;;;;;;7.50;99.90;;;;;;5049511;28;20369;-54
2022/12/21 12:57:41;;;;;;;;;;;7.40;99.90;;;;;;5035546;28;19925;-55
2022/12/21 13:00:08;;;;;;;;;;;7.50;99.90;;;;;;5033336;28;19920;-57
2022/12/21 13:02:46;;;;;;;;;;;7.40;99.90;;;;;;5049396;28;20436;-59
2022/12/21 13:05:13;;;;;;;;;;;;;;;;;;5045425;28;19979;-59
2022/12/21 13:07:39;;;;;;;;;;;;;;;;;;5050567;28;20093;-57
2022/12/21 13:10:04;;;;;;;;;;;;;;;;;;5042542;28;19956;-55
2022/12/21 13:12:30;;;;;;;;;;;;;;;;;;5049651;28;20519;-57
2022/12/21 13:14:56;;;;;;;;;;;;;;;;;;5050208;28;19924;-57
2022/12/21 13:17:22;;;;;;;;;;;;;;;;;;5039268;28;19920;-58
2022/12/21 13:19:48;;;;;;;;;;;;;;;;;;5031952;28;19915;-57
2022/12/21 13:22:14;;;;;;;;;;;;;;;;;;5032109;28;19943;-58
2022/12/21 13:24:42;;;;;;;;;;;7.40;99.90;;;;;;5031996;28;19913;-58
2022/12/21 13:27:12;;;;;;;;;;;7.30;99.90;;;;;;5034866;28;19913;-59
2022/12/21 13:29:38;;;;;;;;;;;;;;;;;;5054331;28;19917;-58
2022/12/21 13:32:09;;;;;;;;;;;7.30;99.90;;;;;;5054361;28;19913;-58
2022/12/21 13:34:35;;;;;;;;;;;;;;;;;;5055909;28;19908;-56
2022/12/21 13:37:01;;;;;;;;;;;;;;;;;;5052565;28;20003;-58
2022/12/21 13:39:27;;;;;;;;;;;;;;;;;;5055732;28;20420;-59
2022/12/21 13:41:53;;;;;;;;;;;;;;;;;;5039372;28;19913;-59
2022/12/21 13:44:19;;;;;;;;;;;;;;;;;;5036859;28;19913;-58
2022/12/21 13:46:45;;;;;;;;;;;;;;;;;;5037987;28;20363;-58
2022/12/21 13:49:11;;;;;;;;;;;;;;;;;;5041306;28;19913;-56
2022/12/21 13:51:37;;;;;;;;;;;;;;;;;;5052544;28;19966;-56
2022/12/21 13:54:02;;;;;;;;;;;;;;;;;;5055347;28;19963;-55
2022/12/21 13:56:28;;;;;;;;;;;;;;;;;;5035822;28;19917;-53
2022/12/21 13:58:54;;;;;;;;;;;;;;;;;;5040587;28;20335;-56
2022/12/21 14:01:20;;;;;;;;;;;;;;;;;;5047443;28;19917;-56
2022/12/21 14:03:46;;;;;;;;;;;;;;;;;;5035597;28;20309;-59
2022/12/21 14:06:12;;;;;;;;;;;;;;;;;;5045616;28;20392;-59
2022/12/21 14:08:38;;;;;;;;;;;;;;;;;;5036699;28;19913;-56
2022/12/21 14:11:05;;;;;;;;;;;;;;;;;;5051944;28;20282;-58
2022/12/21 14:13:31;;;;;;;;;;;;;;;;;;5054227;28;20416;-58
2022/12/21 14:15:59;;;;;;;;;;;7.70;99.90;;;;;;5047704;28;19965;-57
2022/12/21 14:18:25;;;;;;;;;;;;;;;;;;5050366;28;20037;-58
2022/12/21 14:20:51;;;;;;;;;;;;;;;;;;5055002;28;19967;-59
2022/12/21 14:23:17;;;;;;;;;;;;;;;;;;5054965;28;19948;-57
2022/12/21 14:25:44;;;;;;;;;;;7.70;99.90;;;;;;5037571;28;19920;-55
2022/12/21 14:28:30;;;;;;;;;;;7.70;99.90;;;;;;5037117;28;19920;-57
2022/12/21 14:30:59;;;;;;;;;;;7.70;99.90;;;;;;5046570;28;19913;-57
2022/12/21 14:33:31;;;;;;;;;;;7.70;99.90;;;;;;5034976;28;19913;-56
2022/12/21 14:36:23;;;;;;;;;;;7.70;99.90;;;;;;5034898;28;19962;-57
2022/12/21 14:39:01;;;;;;;;;;;7.70;99.90;;;;;;5035933;28;19962;-55
2022/12/21 14:41:30;;;;;;;;;;;7.70;99.90;;;;;;5052288;28;19920;-57
2022/12/21 14:44:14;;;;;;;;;;;7.60;99.90;;;;;;5053082;28;20005;-59
2022/12/21 14:46:40;;;;;;;;;;;;;;;;;;5042207;28;19956;-58
2022/12/21 14:49:06;;;;;;;;;;;;;;;;;;5034559;28;19944;-59
2022/12/21 14:51:32;;;;;;;;;;;;;;;;;;5036147;28;20382;-56
2022/12/21 14:53:59;;;;;;;;;;;;;;;;;;5043338;28;19912;-58
2022/12/21 14:56:25;;;;;;;;;;;;;;;;;;5054369;28;19998;-52
2022/12/21 14:58:51;;;;;;;;;;;;;;;;;;5052636;28;19959;-57
2022/12/21 15:01:17;;;;;;;;;;;;;;;;;;5050840;28;19913;-59
2022/12/21 15:03:43;;;;;;;;;;;;;;;;;;5043613;28;19924;-57
2022/12/21 15:06:09;;;;;;;;;;;;;;;;;;5036633;28;20313;-57
2022/12/21 15:08:35;;;;;;;;;;;;;;;;;;5040905;28;19913;-55
2022/12/21 15:11:01;;;;;;;;;;;;;;;;;;5044577;28;19913;-58
2022/12/21 15:13:27;;;;;;;;;;;;;;;;;;5049112;28;19921;-58
2022/12/21 15:15:53;;;;;;;;;;;;;;;;;;5042283;28;19923;-55
2022/12/21 15:18:19;;;;;;;;;;;;;;;;;;5040486;28;19913;-57
2022/12/21 15:20:45;;;;;;;;;;;;;;;;;;5045423;28;19912;-57
2022/12/21 15:23:16;;;;;;;;;;;7.70;99.90;;;;;;5052668;28;19924;-58
2022/12/21 15:25:42;;;;;;;;;;;7.70;99.50;;;;;;5038226;28;19913;-56
2022/12/21 15:28:17;;;;;;;;;;;7.70;99.70;;;;;;5038170;28;19940;-56
2022/12/21 15:30:45;;;;;;;;;;;7.60;99.90;;;;;;5053156;28;19912;-58
2022/12/21 15:33:33;;;;;;;;;;;7.70;99.90;;;;;;5049529;28;20007;-59
2022/12/21 15:36:00;;;;;;;;;;;7.70;99.70;;;;;;5047794;28;20118;-58